Time;durP1;ratioP1;P1;durP2;ratioP2;P2;SDS_P1;SDS_P2;PMS_P1;PMS_P2;Temp;Humidity;BMP_temperature;BMP_pressure;BME280_temperature;BME280_humidity;BME280_pressure;Samples;Min_cycle;Max_cycle;Signal;HPM_P1;HPM_P2
2023/01/08 00:00:41;;;;;;;7.47;6.70;;;;;;;-15.51;72.13;102951.31;5016736;28;20036;-71
2023/01/08 00:03:07;;;;;;;9.47;6.33;;;;;;;-15.45;73.02;102969.41;5033356;28;20026;-72
2023/01/08 00:05:32;;;;;;;9.13;8.27;;;;;;;-15.49;73.09;102963.34;5033959;28;20456;-71
2023/01/08 00:07:58;;;;;;;7.50;6.60;;;;;;;-15.40;73.65;102961.09;5016469;28;20263;-71
2023/01/08 00:10:23;;;;;;;8.13;6.17;;;;;;;-15.24;72.88;102964.19;5033885;28;20190;-72
2023/01/08 00:12:49;;;;;;;9.20;6.20;;;;;;;-15.30;71.99;102961.44;5033868;28;20036;-72
2023/01/08 00:15:14;;;;;;;9.67;7.47;;;;;;;-15.27;72.99;102951.31;5015790;28;20041;-73
2023/01/08 00:17:41;;;;;;;7.60;6.87;;;;;;;-15.22;72.50;102952.34;5034037;28;20472;-73
2023/01/08 00:20:06;;;;;;;10.35;7.78;;;;;;;-15.28;71.61;102958.13;5033531;28;20077;-72
2023/01/08 00:22:32;;;;;;;15.83;9.67;;;;;;;-15.51;72.60;102929.19;5033836;28;20057;-73
2023/01/08 00:24:58;;;;;;;9.30;8.00;;;;;;;-15.77;72.12;102884.91;5033406;28;20029;-71
2023/01/08 00:27:24;;;;;;;10.60;8.02;;;;;;;-15.44;71.99;102940.50;5016056;28;20124;-74
2023/01/08 00:29:49;;;;;;;13.53;7.80;;;;;;;-15.47;72.69;102948.94;5033541;28;20121;-71
2023/01/08 00:32:15;;;;;;;10.03;7.03;;;;;;;-15.60;72.54;102939.13;5033747;28;20447;-73
2023/01/08 00:34:40;;;;;;;11.57;7.03;;;;;;;-15.66;73.18;102923.56;5015811;28;20034;-71
2023/01/08 00:37:06;;;;;;;14.03;6.97;;;;;;;-15.73;72.92;102926.72;5033613;28;20129;-73
2023/01/08 00:39:31;;;;;;;9.53;8.13;;;;;;;-15.76;73.43;102935.16;5033065;28;20033;-70
2023/01/08 00:41:57;;;;;;;9.43;6.57;;;;;;;-15.88;73.12;102913.44;5033363;28;20029;-71
2023/01/08 00:44:22;;;;;;;9.53;7.47;;;;;;;-15.76;73.60;102934.28;5033254;28;20029;-71
2023/01/08 00:46:48;;;;;;;11.47;6.13;;;;;;;-15.73;73.15;102922.50;5033095;28;20354;-73
2023/01/08 00:49:13;;;;;;;9.90;8.00;;;;;;;-15.71;73.18;102914.88;5032786;28;20111;-72
2023/01/08 00:51:39;;;;;;;12.70;8.13;;;;;;;-15.72;72.15;102915.69;5033110;28;20033;-71
2023/01/08 00:54:04;;;;;;;11.50;8.07;;;;;;;-15.76;72.82;102911.31;5015324;28;20076;-71
2023/01/08 00:56:30;;;;;;;9.73;6.50;;;;;;;-15.71;72.48;102931.06;5032920;28;20431;-71
2023/01/08 00:58:55;;;;;;;9.40;6.90;;;;;;;-15.71;72.20;102932.75;5032839;28;20540;-72
2023/01/08 01:01:21;;;;;;;9.57;6.93;;;;;;;-15.84;71.35;102936.56;5033189;28;20029;-72
2023/01/08 01:03:46;;;;;;;10.57;7.57;;;;;;;-15.92;72.76;102934.53;5032753;28;20457;-72
2023/01/08 01:06:13;;;;;;;10.07;6.27;;;;;;;-16.00;72.65;102917.25;5015443;28;20373;-71
2023/01/08 01:08:39;;;;;;;10.30;7.45;;;;;;;-16.05;72.87;102908.56;5015459;28;20026;-72
2023/01/08 01:11:10;;;;;;;12.07;7.88;;;;;;;-15.96;72.87;102925.88;5032961;28;20449;-75
2023/01/08 01:13:36;;;;;;;11.80;7.47;;;;;;;-15.86;74.22;102929.66;5036393;28;20025;-70
2023/01/08 01:16:03;;;;;;;13.53;10.20;;;;;;;-15.74;73.74;102914.78;5034019;28;20048;-71
2023/01/08 01:18:30;;;;;;;19.00;8.85;;;;;;;-15.67;73.54;102929.50;5034593;28;20040;-71
2023/01/08 01:20:55;;;;;;;11.05;8.15;;;;;;;-15.93;73.03;102885.16;5033259;28;20037;-72
2023/01/08 01:23:21;;;;;;;12.50;8.97;;;;;;;-15.81;74.33;102921.34;5032879;28;20029;-72
2023/01/08 01:25:46;;;;;;;12.07;8.73;;;;;;;-15.98;75.75;102896.88;5032749;28;20083;-72
2023/01/08 01:28:13;;;;;;;15.02;9.55;;;;;;;-15.83;75.16;102933.19;5032711;28;20075;-71
2023/01/08 01:30:38;;;;;;;15.57;9.00;;;;;;;-15.84;76.17;102926.34;5014602;28;20029;-71
2023/01/08 01:33:04;;;;;;;14.43;9.17;;;;;;;-15.79;75.96;102926.50;5032270;28;20052;-72
2023/01/08 01:35:29;;;;;;;19.60;8.47;;;;;;;-15.78;76.21;102925.69;5032424;28;20072;-71
2023/01/08 01:37:55;;;;;;;14.03;9.60;;;;;;;-15.81;76.29;102912.81;5032424;28;20030;-72
2023/01/08 01:40:20;;;;;;;16.53;9.87;;;;;;;-15.84;75.81;102903.38;5014660;28;20144;-72
2023/01/08 01:42:46;;;;;;;11.87;8.83;;;;;;;-15.75;76.25;102908.81;5032247;28;20465;-72
2023/01/08 01:45:17;;;;;;;12.33;8.60;;;;;;;-15.51;76.82;102915.56;5032343;28;20037;-70
2023/01/08 01:47:46;;;;;;;16.20;9.10;;;;;;;-15.54;74.65;102913.78;5031956;28;20029;-73
2023/01/08 01:50:25;;;;;;;13.30;8.40;;;;;;;-15.56;74.93;102923.06;5032068;28;20036;-72
2023/01/08 01:53:00;;;;;;;15.23;8.63;;;;;;;-15.56;75.10;102920.50;5031955;28;20429;-72
2023/01/08 01:55:26;;;;;;;12.80;8.80;;;;;;;-15.60;75.80;102921.25;5031929;28;20099;-72
2023/01/08 01:58:17;;;;;;;19.23;11.48;;;;;;;-15.63;74.67;102928.78;5032068;28;20040;-73
2023/01/08 02:00:43;;;;;;;16.67;9.25;;;;;;;-15.58;76.35;102928.97;5031486;28;20044;-71
2023/01/08 02:03:12;;;;;;;30.92;17.58;;;;;;;-15.64;75.91;102918.50;5031896;28;20025;-72
2023/01/08 02:05:42;;;;;;;37.88;12.90;;;;;;;-15.79;75.18;102893.31;5031983;28;20083;-71
2023/01/08 02:08:17;;;;;;;19.50;11.90;;;;;;;-15.81;76.53;102889.84;5032066;28;20045;-71
2023/01/08 02:10:53;;;;;;;16.10;11.75;;;;;;;-15.75;76.15;102908.81;5031580;28;20037;-72
2023/01/08 02:13:33;;;;;;;13.52;10.55;;;;;;;-15.58;76.34;102901.75;5031843;28;20024;-73
2023/01/08 02:16:14;;;;;;;14.25;9.80;;;;;;;-15.43;75.85;102899.69;5031727;28;20145;-72
2023/01/08 02:18:56;;;;;;;21.15;11.27;;;;;;;-15.46;75.44;102891.91;5032118;28;20033;-72
2023/01/08 02:21:44;;;;;;;16.48;10.45;;;;;;;-15.44;75.38;102903.03;5032052;28;20034;-72
2023/01/08 02:24:25;;;;;;;18.85;10.38;;;;;;;-15.62;74.84;102889.66;5032231;28;20039;-73
2023/01/08 02:26:54;;;;;;;16.23;10.30;;;;;;;-15.82;75.48;102881.31;5016046;28;20029;-71
2023/01/08 02:29:24;;;;;;;12.60;9.48;;;;;;;-15.90;76.49;102889.50;5035728;28;20144;-73
2023/01/08 02:31:51;;;;;;;21.60;12.13;;;;;;;-15.86;77.31;102881.16;5018499;28;20025;-72
2023/01/08 02:34:16;;;;;;;16.90;10.65;;;;;;;-15.78;76.07;102874.63;5035880;28;20021;-72
2023/01/08 02:36:45;;;;;;;16.43;9.93;;;;;;;-15.85;77.31;102867.59;5035778;28;20044;-71
2023/01/08 02:39:43;;;;;;;15.95;9.60;;;;;;;-15.74;76.78;102873.91;5035463;28;20420;-70
2023/01/08 02:42:09;;;;;;;18.83;10.85;;;;;;;-15.80;76.70;102874.59;5035745;28;20033;-70
2023/01/08 02:45:00;;;;;;;18.83;9.80;;;;;;;-15.80;76.46;102878.81;5035492;28;20116;-70
2023/01/08 02:47:44;;;;;;;15.75;10.20;;;;;;;-15.89;76.69;102870.84;5035366;28;20094;-71
2023/01/08 02:50:34;;;;;;;17.20;9.75;;;;;;;-16.15;75.97;102869.91;5035110;28;20067;-72
2023/01/08 02:53:06;;;;;;;13.77;10.07;;;;;;;-16.21;76.98;102872.19;5035215;28;20381;-71
2023/01/08 02:55:34;;;;;;;20.33;9.77;;;;;;;-16.17;76.29;102872.38;5035124;28;20033;-69
2023/01/08 02:58:01;;;;;;;16.90;9.38;;;;;;;-16.15;76.64;102862.25;5034960;28;20531;-73
2023/01/08 03:00:27;;;;;;;12.82;8.23;;;;;;;-16.08;76.25;102866.75;5034783;28;20044;-73
2023/01/08 03:03:04;;;;;;;15.98;11.35;;;;;;;-16.02;76.40;102865.28;5034946;28;20026;-71
2023/01/08 03:05:30;;;;;;;10.40;8.68;;;;;;;-15.93;76.81;102846.00;5035006;28;20075;-72
2023/01/08 03:07:56;;;;;;;13.93;9.30;;;;;;;-15.73;76.86;102845.88;5017025;28;20025;-71
2023/01/08 03:10:25;;;;;;;14.10;8.00;;;;;;;-15.62;75.09;102842.81;5034637;28;20120;-72
2023/01/08 03:12:59;;;;;;;17.85;10.02;;;;;;;-16.11;74.49;102772.22;5034731;28;20069;-72
2023/01/08 03:15:33;;;;;;;17.73;10.65;;;;;;;-15.78;75.28;102832.09;5035261;28;20049;-71
2023/01/08 03:18:05;;;;;;;15.32;9.38;;;;;;;-15.88;75.68;102836.84;5035756;28;20443;-71
2023/01/08 03:20:34;;;;;;;12.50;9.43;;;;;;;-16.03;75.31;102850.78;5034712;28;20021;-71
2023/01/08 03:23:05;;;;;;;22.85;12.02;;;;;;;-16.19;76.02;102843.38;5034824;28;20120;-72
2023/01/08 03:25:31;;;;;;;20.48;10.20;;;;;;;-16.21;75.85;102832.25;5034164;28;20055;-72
2023/01/08 03:28:02;;;;;;;22.92;10.77;;;;;;;-16.22;75.57;102822.84;5034481;28;20076;-71
2023/01/08 03:30:53;;;;;;;20.05;10.60;;;;;;;-16.15;75.95;102829.94;5034324;28;20056;-71
2023/01/08 03:33:19;;;;;;;20.53;12.07;;;;;;;-16.13;75.71;102842.75;5034158;28;20037;-72
2023/01/08 03:35:49;;;;;;;20.85;10.35;;;;;;;-16.23;75.50;102831.31;5034445;28;20036;-72
2023/01/08 03:38:21;;;;;;;18.55;10.32;;;;;;;-16.23;76.35;102831.31;5033064;28;20425;-72
2023/01/08 03:40:53;;;;;;;15.43;9.98;;;;;;;-16.25;75.58;102832.09;5034249;28;20032;-71
2023/01/08 03:43:18;;;;;;;18.23;10.00;;;;;;;-16.37;76.13;102822.31;5034223;28;20043;-72
2023/01/08 03:46:00;;;;;;;19.60;9.90;;;;;;;-16.36;76.63;102826.59;5034271;28;20104;-72
2023/01/08 03:48:29;;;;;;;13.30;8.32;;;;;;;-16.32;76.97;102831.00;5033815;28;20342;-73
2023/01/08 03:50:55;;;;;;;14.20;9.65;;;;;;;-16.26;76.33;102831.22;5034005;28;20021;-71
2023/01/08 03:53:20;;;;;;;15.27;9.07;;;;;;;-16.27;76.63;102826.94;5034001;28;20507;-70
2023/01/08 03:55:46;;;;;;;18.73;10.90;;;;;;;-16.33;75.96;102824.16;5033854;28;20476;-69
2023/01/08 03:58:12;;;;;;;14.40;10.70;;;;;;;-16.32;76.87;102831.88;5033720;28;20037;-71
2023/01/08 04:00:37;;;;;;;16.27;9.33;;;;;;;-16.19;76.59;102828.06;5033821;28;20029;-72
2023/01/08 04:03:03;;;;;;;19.07;10.17;;;;;;;-16.25;76.63;102807.44;5033560;28;20119;-73
2023/01/08 04:05:28;;;;;;;17.50;11.53;;;;;;;-16.05;76.80;102832.00;5033729;28;20029;-73
2023/01/08 04:07:57;;;;;;;13.03;8.97;;;;;;;-15.97;75.74;102825.47;5033809;28;20076;-70
2023/01/08 04:10:23;;;;;;;14.77;9.93;;;;;;;-15.92;75.88;102822.19;5034065;28;20037;-71
2023/01/08 04:12:49;;;;;;;14.52;9.13;;;;;;;-16.26;76.29;102774.22;5033956;28;20120;-71
2023/01/08 04:15:20;;;;;;;12.97;8.80;;;;;;;-16.04;75.89;102813.31;5033491;28;20524;-73
2023/01/08 04:17:52;;;;;;;19.52;11.07;;;;;;;-16.33;76.34;102762.94;5033601;28;20033;-72
2023/01/08 04:20:17;;;;;;;15.30;9.73;;;;;;;-15.95;75.80;102812.75;5033811;28;20025;-72
2023/01/08 04:22:43;;;;;;;15.23;8.13;;;;;;;-15.90;76.21;102810.38;5016068;28;20052;-73
2023/01/08 04:25:11;;;;;;;16.25;9.23;;;;;;;-16.30;75.82;102755.38;5042087;28;20060;-71
2023/01/08 04:27:38;;;;;;;18.25;9.48;;;;;;;-15.91;75.79;102806.06;5043966;28;20124;-72
2023/01/08 04:30:04;;;;;;;16.97;10.73;;;;;;;-16.22;75.86;102756.50;5044357;28;20145;-70
2023/01/08 04:32:30;;;;;;;18.27;11.05;;;;;;;-16.05;76.25;102790.28;5045246;28;20071;-70
2023/01/08 04:34:56;;;;;;;14.90;9.17;;;;;;;-15.99;76.81;102793.06;5039367;28;20057;-73
2023/01/08 04:37:21;;;;;;;17.93;9.80;;;;;;;-16.01;76.96;102784.47;5033697;28;20033;-71
2023/01/08 04:39:47;;;;;;;20.90;10.40;;;;;;;-15.97;76.40;102796.53;5033278;28;20075;-73
2023/01/08 04:42:12;;;;;;;11.83;9.87;;;;;;;-16.03;76.43;102792.09;5033133;28;20025;-73
2023/01/08 04:44:38;;;;;;;22.20;11.20;;;;;;;-15.97;76.59;102789.72;5032904;28;20040;-71
2023/01/08 04:47:03;;;;;;;22.43;13.20;;;;;;;-16.00;76.89;102787.09;5033099;28;20075;-74
2023/01/08 04:49:29;;;;;;;19.23;11.10;;;;;;;-16.03;76.88;102794.63;5015173;28;20488;-73
2023/01/08 04:51:54;;;;;;;21.33;12.50;;;;;;;-16.09;76.55;102789.31;5033065;28;20453;-74
2023/01/08 04:54:19;;;;;;;16.27;11.33;;;;;;;-16.11;76.90;102775.66;5033457;28;20051;-72
2023/01/08 04:56:45;;;;;;;20.40;10.70;;;;;;;-16.04;76.81;102775.03;5033439;28;20033;-71
2023/01/08 04:59:10;;;;;;;22.80;13.23;;;;;;;-16.01;76.78;102772.59;5033655;28;20445;-72
2023/01/08 05:01:36;;;;;;;28.97;12.37;;;;;;;-15.86;77.62;102779.03;5032927;28;20026;-72
2023/01/08 05:04:03;;;;;;;22.07;11.53;;;;;;;-15.92;76.85;102750.72;5032730;28;20473;-72
2023/01/08 05:06:30;;;;;;;15.82;10.25;;;;;;;-15.67;75.82;102783.94;5032763;28;20022;-72
2023/01/08 05:08:56;;;;;;;21.05;10.27;;;;;;;-15.60;75.69;102782.47;5014908;28;20564;-74
2023/01/08 05:11:22;;;;;;;19.83;11.52;;;;;;;-15.62;77.00;102777.28;5032483;28;20137;-74
2023/01/08 05:13:49;;;;;;;17.88;11.13;;;;;;;-15.65;76.54;102766.97;5032227;28;20056;-76
2023/01/08 05:16:17;;;;;;;21.55;10.45;;;;;;;-15.62;76.48;102772.19;5032544;28;20049;-73
2023/01/08 05:18:44;;;;;;;13.05;9.25;;;;;;;-15.67;75.62;102773.72;5032426;28;20120;-72
2023/01/08 05:21:10;;;;;;;18.80;11.30;;;;;;;-15.74;77.19;102751.38;5032521;28;20076;-72
2023/01/08 05:23:35;;;;;;;20.50;10.80;;;;;;;-15.74;76.16;102747.13;5032532;28;20033;-72
2023/01/08 05:26:03;;;;;;;23.77;12.30;;;;;;;-15.60;76.47;102785.03;5033026;28;20040;-72
2023/01/08 05:28:29;;;;;;;24.83;11.50;;;;;;;-15.73;76.73;102768.41;5033022;28;20527;-71
2023/01/08 05:30:55;;;;;;;20.47;11.97;;;;;;;-15.84;76.50;102755.31;5032645;28;20033;-73
2023/01/08 05:33:21;;;;;;;34.13;12.00;;;;;;;-15.80;76.66;102772.47;5032625;28;20036;-73
2023/01/08 05:35:47;;;;;;;77.95;66.93;;;;;;;-15.83;77.02;102771.50;5032782;28;20021;-72
2023/01/08 05:38:12;;;;;;;18.40;12.40;;;;;;;-15.90;78.51;102767.84;5032250;28;20484;-72
2023/01/08 05:40:38;;;;;;;21.20;12.57;;;;;;;-15.84;78.24;102770.63;5032744;28;20053;-73
2023/01/08 05:43:04;;;;;;;22.27;13.67;;;;;;;-15.86;78.07;102766.28;5032002;28;20021;-72
2023/01/08 05:45:30;;;;;;;28.73;13.95;;;;;;;-15.85;78.13;102762.91;5032014;28;20415;-74
2023/01/08 05:47:56;;;;;;;16.77;11.65;;;;;;;-15.88;78.25;102768.78;5015335;28;20480;-72
2023/01/08 05:50:21;;;;;;;15.70;11.03;;;;;;;-15.80;78.50;102769.03;5032062;28;20033;-72
2023/01/08 05:52:47;;;;;;;20.93;12.40;;;;;;;-15.64;77.61;102778.06;5032467;28;20140;-73
2023/01/08 05:55:12;;;;;;;24.87;11.37;;;;;;;-15.55;77.99;102794.53;5031892;28;20107;-73
2023/01/08 05:57:38;;;;;;;17.37;12.13;;;;;;;-15.54;77.69;102790.31;5031762;28;20126;-71
2023/01/08 06:00:06;;;;;;;17.20;10.23;;;;;;;-15.54;78.00;102800.53;5032176;28;20026;-73
2023/01/08 06:02:32;;;;;;;19.00;11.98;;;;;;;-15.47;78.15;102802.44;5035014;28;20052;-73
2023/01/08 06:05:01;;;;;;;26.40;12.80;;;;;;;-15.46;77.86;102794.84;5029499;28;20025;-72
2023/01/08 06:07:29;;;;;;;25.20;12.65;;;;;;;-15.53;77.32;102782.69;5042798;28;20056;-72
2023/01/08 06:09:54;;;;;;;22.70;13.10;;;;;;;-15.50;77.65;102793.00;5018108;28;20473;-74
2023/01/08 06:12:20;;;;;;;21.43;11.87;;;;;;;-15.46;77.37;102789.72;5035835;28;20095;-72
2023/01/08 06:14:49;;;;;;;19.17;12.40;;;;;;;-15.41;77.69;102783.06;5035760;28;20538;-72
2023/01/08 06:17:16;;;;;;;16.52;10.77;;;;;;;-15.43;76.82;102784.72;5036115;28;20037;-72
2023/01/08 06:19:41;;;;;;;17.55;11.82;;;;;;;-15.61;76.52;102773.03;5035968;28;20385;-71
2023/01/08 06:22:06;;;;;;;16.97;9.60;;;;;;;-15.53;77.15;102785.25;5036193;28;20029;-71
2023/01/08 06:24:32;;;;;;;22.50;10.53;;;;;;;-15.62;76.85;102769.63;5035722;28;20036;-73
2023/01/08 06:26:57;;;;;;;23.40;11.47;;;;;;;-15.44;77.78;102769.34;5035892;28;20017;-72
2023/01/08 06:29:23;;;;;;;19.43;11.30;;;;;;;-15.27;77.20;102763.09;5018076;28;20035;-74
2023/01/08 06:31:48;;;;;;;19.80;13.13;;;;;;;-15.13;78.35;102768.63;5035896;28;20056;-73
2023/01/08 06:34:14;;;;;;;27.97;13.13;;;;;;;-14.93;78.30;102754.78;5035512;28;20384;-72
2023/01/08 06:36:40;;;;;;;19.27;11.47;;;;;;;-14.87;76.52;102752.38;5035810;28;20025;-72
2023/01/08 06:39:06;;;;;;;25.00;11.47;;;;;;;-14.99;76.33;102752.03;5017853;28;20057;-71
2023/01/08 06:41:31;;;;;;;21.45;13.57;;;;;;;-15.19;76.49;102755.66;5017810;28;20437;-71
2023/01/08 06:43:57;;;;;;;16.07;9.23;;;;;;;-15.32;76.83;102750.97;5017730;28;20124;-72
2023/01/08 06:46:23;;;;;;;23.30;12.47;;;;;;;-15.31;77.19;102758.72;5017413;28;20029;-73
2023/01/08 06:48:48;;;;;;;23.47;11.33;;;;;;;-15.50;76.87;102741.91;5035057;28;20083;-73
2023/01/08 06:51:13;;;;;;;24.17;13.00;;;;;;;-15.39;76.92;102755.88;5034936;28;20075;-74
2023/01/08 06:53:39;;;;;;;24.53;13.03;;;;;;;-15.37;76.83;102748.28;5035071;28;20115;-74
2023/01/08 06:56:08;;;;;;;22.13;12.57;;;;;;;-15.07;77.59;102766.25;5033643;28;20541;-73
2023/01/08 06:58:34;;;;;;;22.80;11.30;;;;;;;-14.93;76.70;102761.56;5034938;28;20108;-72
2023/01/08 07:00:59;;;;;;;27.95;12.85;;;;;;;-15.14;75.35;102736.22;5034460;28;20832;-72
2023/01/08 07:03:25;;;;;;;22.60;11.60;;;;;;;-15.07;75.87;102756.88;5034820;28;20057;-74
2023/01/08 07:05:51;;;;;;;26.53;14.07;;;;;;;-15.05;76.43;102775.69;5034986;28;20025;-72
2023/01/08 07:08:17;;;;;;;20.20;12.27;;;;;;;-15.13;76.18;102771.19;5035010;28;20172;-71
2023/01/08 07:10:44;;;;;;;24.60;10.70;;;;;;;-15.06;77.65;102766.28;5017310;28;20040;-73
2023/01/08 07:13:11;;;;;;;16.52;10.95;;;;;;;-14.82;77.47;102775.53;5033589;28;20391;-72
2023/01/08 07:15:41;;;;;;;22.73;11.75;;;;;;;-14.75;76.39;102769.78;5034877;28;20053;-71
2023/01/08 07:18:10;;;;;;;20.77;11.63;;;;;;;-14.64;75.78;102749.66;5016893;28;20492;-72
2023/01/08 07:20:36;;;;;;;22.88;13.65;;;;;;;-14.73;74.83;102746.00;5034367;28;20025;-73
2023/01/08 07:23:08;;;;;;;21.92;12.27;;;;;;;-14.86;75.35;102754.13;5034282;28;20032;-72
2023/01/08 07:25:33;;;;;;;18.42;11.10;;;;;;;-14.98;75.38;102746.09;5034503;28;20033;-73
2023/01/08 07:27:59;;;;;;;19.97;11.43;;;;;;;-14.98;75.52;102750.34;5034595;28;20025;-73
2023/01/08 07:30:25;;;;;;;24.17;12.40;;;;;;;-15.08;76.01;102746.63;5034096;28;20035;-76
2023/01/08 07:32:51;;;;;;;19.63;11.32;;;;;;;-15.00;76.31;102750.31;5034668;28;20099;-74
2023/01/08 07:35:18;;;;;;;14.80;9.18;;;;;;;-14.94;75.53;102747.94;5016870;28;20432;-73
2023/01/08 07:37:44;;;;;;;22.00;11.33;;;;;;;-15.04;75.27;102738.22;5034364;28;20032;-73
2023/01/08 07:40:10;;;;;;;16.53;10.77;;;;;;;-15.00;75.65;102745.19;5034536;28;20056;-71
2023/01/08 07:42:37;;;;;;;21.05;10.48;;;;;;;-14.97;75.56;102737.59;5034397;28;20025;-74
2023/01/08 07:45:03;;;;;;;15.93;10.73;;;;;;;-15.15;74.72;102726.81;5034739;28;20033;-72
2023/01/08 07:47:29;;;;;;;13.85;10.18;;;;;;;-15.21;74.99;102737.72;5034377;28;20164;-72
2023/01/08 07:49:54;;;;;;;19.93;12.77;;;;;;;-15.23;75.67;102748.72;5034411;28;20112;-73
2023/01/08 07:52:20;;;;;;;22.97;12.40;;;;;;;-15.42;75.34;102725.13;5034104;28;20029;-71
2023/01/08 07:54:45;;;;;;;15.00;9.73;;;;;;;-15.36;75.92;102739.78;5016326;28;20116;-71
2023/01/08 07:57:11;;;;;;;14.20;9.53;;;;;;;-15.47;75.24;102725.81;5034287;28;20044;-71
2023/01/08 07:59:36;;;;;;;16.20;10.17;;;;;;;-15.32;75.78;102733.09;5017040;28;20032;-73
2023/01/08 08:02:02;;;;;;;19.73;9.80;;;;;;;-15.33;76.29;102747.53;5034502;28;20029;-70
2023/01/08 08:04:27;;;;;;;21.80;12.80;;;;;;;-15.46;75.36;102730.97;5034027;28;20028;-71
2023/01/08 08:06:53;;;;;;;15.60;10.23;;;;;;;-15.50;76.23;102724.03;5033749;28;20461;-71
2023/01/08 08:09:19;;;;;;;13.70;9.63;;;;;;;-15.46;75.52;102736.09;5034396;28;20040;-75
2023/01/08 08:11:45;;;;;;;22.20;11.40;;;;;;;-15.29;76.44;102735.75;5034462;28;20026;-73
2023/01/08 08:14:10;;;;;;;23.43;10.70;;;;;;;-15.34;75.21;102733.03;5033934;28;20104;-76
2023/01/08 08:16:37;;;;;;;23.00;13.37;;;;;;;-15.35;74.90;102738.97;5033743;28;20397;-73
2023/01/08 08:19:03;;;;;;;16.33;9.13;;;;;;;-15.41;75.18;102731.13;5034003;28;20488;-72
2023/01/08 08:21:29;;;;;;;15.43;11.05;;;;;;;-15.40;74.89;102723.50;5033512;28;20091;-73
2023/01/08 08:23:55;;;;;;;14.23;8.60;;;;;;;-15.44;75.51;102719.13;5032852;28;20029;-74
2023/01/08 08:26:21;;;;;;;13.95;8.73;;;;;;;-15.49;74.59;102725.78;5033683;28;20163;-70
2023/01/08 08:28:47;;;;;;;12.30;8.73;;;;;;;-15.46;75.24;102725.88;5033121;28;20025;-71
2023/01/08 08:31:13;;;;;;;17.13;10.60;;;;;;;-15.42;75.50;102734.50;5033286;28;20025;-71
2023/01/08 08:33:38;;;;;;;15.10;8.90;;;;;;;-15.20;75.53;102746.25;5032918;28;20017;-74
2023/01/08 08:36:05;;;;;;;15.20;10.37;;;;;;;-15.22;74.73;102738.53;5033311;28;20045;-72
2023/01/08 08:38:30;;;;;;;13.50;8.47;;;;;;;-15.27;74.81;102739.22;5035588;28;20597;-76
2023/01/08 08:40:56;;;;;;;11.73;7.53;;;;;;;-15.31;75.57;102727.19;5038166;28;20264;-73
2023/01/08 08:43:21;;;;;;;17.50;9.73;;;;;;;-15.23;75.66;102733.38;5033013;28;20416;-75
2023/01/08 08:45:47;;;;;;;15.27;9.20;;;;;;;-15.65;74.91;102675.03;5033350;28;20021;-77
2023/01/08 08:48:15;;;;;;;16.30;9.97;;;;;;;-15.35;75.39;102737.28;5015983;28;20032;-74
2023/01/08 08:50:41;;;;;;;14.60;9.23;;;;;;;-15.27;74.99;102755.44;5034407;28;20043;-72
2023/01/08 08:53:08;;;;;;;15.07;9.10;;;;;;;-15.31;75.37;102747.63;5033482;28;20120;-73
2023/01/08 08:55:33;;;;;;;12.77;7.70;;;;;;;-15.32;75.63;102736.53;5032561;28;20026;-72
2023/01/08 08:58:17;;;;;;;14.67;9.37;;;;;;;-15.16;75.71;102743.84;5032760;28;20029;-76
2023/01/08 09:00:43;;;;;;;16.70;9.68;;;;;;;-15.02;75.65;102744.28;5015047;28;20488;-72
2023/01/08 09:03:12;;;;;;;12.90;9.20;;;;;;;-15.07;75.16;102716.00;5034299;28;20025;-72
2023/01/08 09:05:38;;;;;;;14.02;9.13;;;;;;;-14.91;74.73;102745.44;5033669;28;20021;-72
2023/01/08 09:08:03;;;;;;;14.43;9.60;;;;;;;-14.91;74.66;102750.56;5034815;28;20033;-73
2023/01/08 09:10:29;;;;;;;18.90;10.07;;;;;;;-14.94;75.20;102739.38;5032672;28;20037;-72
2023/01/08 09:12:54;;;;;;;18.67;10.80;;;;;;;-15.01;74.35;102733.22;5032730;28;20052;-70
2023/01/08 09:15:27;;;;;;;12.23;8.47;;;;;;;-14.90;74.48;102731.84;5032180;28;20064;-72
2023/01/08 09:17:57;;;;;;;16.10;8.00;;;;;;;-14.84;74.49;102732.03;5032250;28;20037;-73
2023/01/08 09:20:24;;;;;;;13.82;9.15;;;;;;;-14.83;74.54;102725.22;5014844;28;20380;-72
2023/01/08 09:22:49;;;;;;;15.27;9.80;;;;;;;-14.74;74.13;102720.38;5032320;28;20136;-71
2023/01/08 09:25:15;;;;;;;15.23;8.73;;;;;;;-14.73;74.46;102707.66;5032338;28;20491;-70
2023/01/08 09:27:41;;;;;;;15.00;8.00;;;;;;;-14.62;74.12;102722.41;5032438;28;20029;-72
2023/01/08 09:30:07;;;;;;;20.27;8.80;;;;;;;-14.47;73.90;102728.81;5014454;28;20108;-72
2023/01/08 09:32:33;;;;;;;17.80;9.13;;;;;;;-14.40;73.10;102719.59;5032513;28;20469;-74
2023/01/08 09:34:58;;;;;;;18.57;9.53;;;;;;;-14.39;73.80;102721.34;5032441;28;20040;-73
2023/01/08 09:37:24;;;;;;;10.65;8.15;;;;;;;-14.34;73.06;102717.22;5031807;28;20492;-70
2023/01/08 09:39:50;;;;;;;15.03;9.40;;;;;;;-14.22;73.50;102707.28;5014411;28;20013;-71
2023/01/08 09:42:21;;;;;;;12.50;9.07;;;;;;;-14.20;73.81;102713.31;5031637;28;20037;-72
2023/01/08 09:44:50;;;;;;;12.68;8.45;;;;;;;-14.07;74.28;102709.41;5021685;28;20026;-73
2023/01/08 09:47:25;;;;;;;16.67;8.35;;;;;;;-13.93;73.64;102718.28;5031722;28;20029;-73
2023/01/08 09:49:55;;;;;;;14.88;9.45;;;;;;;-13.96;73.60;102717.34;5013663;28;20033;-71
2023/01/08 09:52:21;;;;;;;15.68;8.52;;;;;;;-14.15;73.69;102711.75;5032026;28;20034;-71
2023/01/08 09:54:47;;;;;;;14.53;9.20;;;;;;;-14.20;74.70;102713.31;5031759;28;20039;-72
2023/01/08 09:57:15;;;;;;;18.67;10.53;;;;;;;-14.23;75.07;102703.00;5031634;28;20030;-72
2023/01/08 09:59:41;;;;;;;;;;;;;;;-14.15;75.05;102714.31;5032740;28;20418;-70
2023/01/08 10:02:22;;;;;;;14.87;9.83;;;;;;;-14.22;75.54;102702.16;5032752;28;20400;-70
2023/01/08 10:04:54;;;;;;;12.98;9.18;;;;;;;-14.22;75.84;102691.94;5031389;28;20256;-72
2023/01/08 10:07:23;;;;;;;19.65;9.80;;;;;;;-14.11;75.36;102700.78;5029602;28;20080;-72
2023/01/08 10:09:51;;;;;;;13.93;8.85;;;;;;;-14.27;75.52;102688.38;5031989;28;20037;-72
2023/01/08 10:12:31;;;;;;;15.38;10.23;;;;;;;-14.31;77.12;102693.38;5014397;28;20477;-73
2023/01/08 10:15:06;;;;;;;14.77;9.18;;;;;;;-14.27;77.21;102674.72;5027015;28;20036;-72
2023/01/08 10:17:37;;;;;;;16.73;9.65;;;;;;;-14.07;76.96;102682.94;5015487;28;20381;-73
2023/01/08 10:20:16;;;;;;;12.32;8.95;;;;;;;-14.06;76.90;102674.41;5031877;28;20124;-73
2023/01/08 10:22:42;;;;;;;17.63;11.63;;;;;;;-14.05;76.81;102671.03;5030253;28;20014;-73
2023/01/08 10:25:15;;;;;;;13.68;10.60;;;;;;;-14.17;77.11;102664.75;5032671;28;20021;-75
2023/01/08 10:27:52;;;;;;;16.98;10.43;;;;;;;-14.15;77.39;102675.94;4998290;28;20025;-74
2023/01/08 10:30:35;;;;;;;12.77;8.70;;;;;;;-14.25;77.12;102658.56;5027469;28;20029;-75
2023/01/08 10:33:44;;;;;;;14.80;9.75;;;;;;;-14.34;78.05;102648.13;5014725;28;20038;-77
2023/01/08 10:36:37;;;;;;;;;;;;;;;-14.16;77.83;102663.09;5003962;28;20405;-77
2023/01/08 10:39:04;;;;;;;9.80;8.90;;;;;;;-14.30;78.00;102660.16;5031893;28;19913;-77
2023/01/08 10:42:00;;;;;;;16.65;9.00;;;;;;;-14.72;78.82;102594.28;5014010;28;20057;-76
2023/01/08 10:44:38;;;;;;;12.73;7.57;;;;;;;-14.24;78.00;102673.09;4996924;28;20535;-76
2023/01/08 10:47:05;;;;;;;19.77;9.82;;;;;;;-14.90;78.99;102578.44;4997839;28;20044;-75
2023/01/08 10:49:44;;;;;;;10.88;7.47;;;;;;;-14.52;79.28;102653.63;5036341;28;20091;-74
2023/01/08 10:52:30;;;;;;;13.68;8.27;;;;;;;-14.37;79.65;102654.84;5001978;28;20033;-74
2023/01/08 10:54:56;;;;;;;12.00;8.00;;;;;;;-14.38;78.56;102645.44;5036736;28;20021;-74
2023/01/08 10:57:29;;;;;;;15.90;7.57;;;;;;;-14.57;79.05;102596.38;5034859;28;20022;-73
2023/01/08 10:59:55;;;;;;;12.70;8.38;;;;;;;-14.20;78.88;102651.88;5035792;28;20027;-76
2023/01/08 11:02:29;;;;;;;8.75;7.70;;;;;;;-14.18;78.78;102629.75;5055204;28;20033;-75
2023/01/08 11:04:54;;;;;;;11.40;8.15;;;;;;;-14.10;78.93;102633.38;5055120;28;20029;-77
2023/01/08 11:07:22;;;;;;;12.23;8.87;;;;;;;-14.08;78.47;102635.97;5056066;28;20028;-74
2023/01/08 11:09:53;;;;;;;11.15;7.95;;;;;;;-14.04;78.86;102627.53;5054926;28;20032;-76
2023/01/08 11:12:39;;;;;;;10.65;7.95;;;;;;;-13.95;78.92;102638.00;5055007;28;20032;-75